Terminal Aerodrome Forecast
Issued by NWS

Home | Current Version | Previous Version | Text Only | Print | Product List | Glossary On
Versions: 1 2 3 4 5 6 7 8 9 10 11 12 13 14 15 16 17 18 19 20 21 22 23 24 25 26 27 28 29 30 31 32 33 34 35 36 37 38 39 40 41 42
000
FTUS44 KLIX 170531
TAFHUM
TAF
KHUM 170531Z 1706/1806 14007KT P6SM FEW007 BKN250
     FM170800 15005KT 3SM BR BKN008
      TEMPO 1710/1714 1SM BR OVC005
     FM171500 16006KT P6SM BKN010
     FM171600 16007KT P6SM BKN025
     FM171800 17009KT P6SM BKN050=

USA.gov is the U.S. government's official web portal to all federal, state and local government web resources and services.